createdAt,value
2022-10-23T00:01:13.879Z,98469.16
2022-10-23T00:03:42.142Z,98469.13
2022-10-23T00:06:10.564Z,98460.47
2022-10-23T00:08:39.002Z,98470.88
2022-10-23T00:11:08.795Z,98487.06
2022-10-23T00:13:38.518Z,98485.06
2022-10-23T00:16:07.534Z,98473.50
2022-10-23T00:18:36.240Z,98484.41
2022-10-23T00:21:05.024Z,98491.44
2022-10-23T00:23:33.164Z,98481.53
2022-10-23T00:26:01.570Z,98482.38
2022-10-23T00:28:30.193Z,98487.50
2022-10-23T00:31:04.172Z,98496.47
2022-10-23T00:33:33.169Z,98487.44
2022-10-23T00:36:01.550Z,98487.22
2022-10-23T00:38:32.578Z,98488.44
2022-10-23T00:41:00.912Z,98473.50
2022-10-23T00:43:32.996Z,98480.53
2022-10-23T00:46:03.127Z,98491.06
2022-10-23T00:48:31.433Z,98488.47
2022-10-23T00:50:59.937Z,98482.63
2022-10-23T00:53:28.049Z,98476.66
2022-10-23T00:55:57.751Z,98489.03
2022-10-23T00:58:25.934Z,98487.75
2022-10-23T01:00:56.213Z,98486.69
2022-10-23T01:03:29.653Z,98483.44
2022-10-23T01:06:01.776Z,98480.53
2022-10-23T01:08:33.780Z,98487.88
2022-10-23T01:11:08.154Z,98487.75
2022-10-23T01:13:41.306Z,98492.97
2022-10-23T01:16:15.998Z,98496.41
2022-10-23T01:18:50.220Z,98503.25
2022-10-23T01:21:20.226Z,98501.47
2022-10-23T01:24:11.153Z,98511.31
2022-10-23T01:26:48.779Z,98496.38
2022-10-23T01:29:21.410Z,98494.91
2022-10-23T01:31:52.374Z,98497.03
2022-10-23T01:34:24.764Z,98497.22
2022-10-23T01:36:54.073Z,98503.59
2022-10-23T01:39:24.811Z,98503.72
2022-10-23T01:41:55.622Z,98494.63
2022-10-23T01:44:28.065Z,98503.91
2022-10-23T01:46:57.185Z,98508.69
2022-10-23T01:49:25.680Z,98505.59
2022-10-23T01:51:56.625Z,98506.72
2022-10-23T01:54:27.847Z,98505.56
2022-10-23T01:56:55.954Z,98503.75
2022-10-23T01:59:28.558Z,98506.88
2022-10-23T02:01:58.507Z,98501.53
2022-10-23T02:04:29.383Z,98502.69
2022-10-23T02:06:57.989Z,98492.88
2022-10-23T02:09:26.129Z,98508.66
2022-10-23T02:11:59.383Z,98506.56
2022-10-23T02:14:38.460Z,98507.03
2022-10-23T02:17:12.365Z,98510.66
2022-10-23T02:19:45.410Z,98515.66
2022-10-23T02:22:16.279Z,98513.56
2022-10-23T02:24:48.047Z,98511.41
2022-10-23T02:27:18.773Z,98516.78
2022-10-23T02:29:49.940Z,98515.97
2022-10-23T02:32:18.084Z,98515.72
2022-10-23T02:34:46.173Z,98516.06
2022-10-23T02:37:14.610Z,98523.53
2022-10-23T02:39:43.056Z,98520.84
2022-10-23T02:42:15.829Z,98523.09
2022-10-23T02:44:51.776Z,98520.19
2022-10-23T02:47:31.464Z,98524.75
2022-10-23T02:50:06.396Z,98529.47
2022-10-23T02:52:38.426Z,98528.31
2022-10-23T02:55:15.300Z,98518.91
2022-10-23T02:57:46.386Z,98526.09
2022-10-23T03:00:18.294Z,98529.19
2022-10-23T03:02:49.471Z,98521.84
2022-10-23T03:05:18.579Z,98530.47
2022-10-23T03:07:47.469Z,98517.63
2022-10-23T03:10:16.386Z,98524.28
2022-10-23T03:12:44.809Z,98523.78
2022-10-23T03:15:13.555Z,98527.34
2022-10-23T03:17:42.964Z,98532.78
2022-10-23T03:20:12.557Z,98532.91
2022-10-23T03:22:41.462Z,98530.31
2022-10-23T03:25:10.798Z,98531.63
2022-10-23T03:27:38.976Z,98533.53
2022-10-23T03:30:08.786Z,98538.47
2022-10-23T03:32:36.924Z,98535.00
2022-10-23T03:35:07.668Z,98536.19
2022-10-23T03:37:35.865Z,98535.66
2022-10-23T03:40:04.653Z,98536.16
2022-10-23T03:42:32.704Z,98544.22
2022-10-23T03:45:01.152Z,98545.69
2022-10-23T03:47:30.497Z,98547.53
2022-10-23T03:49:59.089Z,98542.69
2022-10-23T03:52:28.713Z,98549.56
2022-10-23T03:54:57.113Z,98541.38
2022-10-23T03:57:25.432Z,98548.22
2022-10-23T03:59:53.695Z,98541.09
2022-10-23T04:02:21.929Z,98549.84
2022-10-23T04:04:50.288Z,98554.56
2022-10-23T04:07:18.471Z,98544.81
2022-10-23T04:09:48.234Z,98536.34
2022-10-23T04:12:16.490Z,98540.09
2022-10-23T04:14:44.796Z,98533.28
2022-10-23T04:17:13.046Z,98532.97
2022-10-23T04:19:41.320Z,98530.38
2022-10-23T04:22:09.547Z,98533.63
2022-10-23T04:24:37.943Z,98527.09
2022-10-23T04:27:07.476Z,98530.00
2022-10-23T04:29:35.807Z,98524.50
2022-10-23T04:32:03.992Z,98525.97
2022-10-23T04:34:32.286Z,98522.66
2022-10-23T04:37:00.449Z,98523.97
2022-10-23T04:39:28.733Z,98527.06
2022-10-23T04:41:56.907Z,98525.44
2022-10-23T04:44:26.786Z,98527.44
2022-10-23T04:46:54.882Z,98519.72
2022-10-23T04:49:23.246Z,98517.78
2022-10-23T04:51:51.673Z,98522.47
2022-10-23T04:54:19.761Z,98520.34
2022-10-23T04:56:48.077Z,98516.63
2022-10-23T04:59:16.403Z,98522.00
2022-10-23T05:01:46.211Z,98517.78
2022-10-23T05:04:14.402Z,98516.13
2022-10-23T05:06:42.731Z,98519.72
2022-10-23T05:09:10.789Z,98526.53
2022-10-23T05:11:38.876Z,98526.09
2022-10-23T05:14:07.412Z,98529.84
2022-10-23T05:16:38.338Z,98524.47
2022-10-23T05:19:09.835Z,98532.94
2022-10-23T05:21:38.891Z,98526.56
2022-10-23T05:24:07.841Z,98530.19
2022-10-23T05:26:36.051Z,98530.66
2022-10-23T05:29:04.601Z,98534.72
2022-10-23T05:31:34.246Z,98536.38
2022-10-23T05:34:02.790Z,98540.13
2022-10-23T05:36:32.427Z,98548.09
2022-10-23T05:39:00.859Z,98541.91
2022-10-23T05:41:28.955Z,98537.50
2022-10-23T05:43:57.378Z,98553.59
2022-10-23T05:46:25.541Z,98555.09
2022-10-23T05:48:54.278Z,98549.91
2022-10-23T05:51:23.306Z,98556.56
2022-10-23T05:53:53.937Z,98561.09
2022-10-23T05:56:22.159Z,98563.06
2022-10-23T05:58:50.366Z,98572.03
2022-10-23T06:01:18.973Z,98571.22
2022-10-23T06:03:47.479Z,98571.69
2022-10-23T06:06:17.901Z,98570.41
2022-10-23T06:08:46.222Z,98577.41
2022-10-23T06:11:16.734Z,98588.78
2022-10-23T06:13:45.831Z,98584.22
2022-10-23T06:16:15.842Z,98597.94
2022-10-23T06:18:44.690Z,98603.16
2022-10-23T06:21:13.545Z,98592.38
2022-10-23T06:23:42.759Z,98597.13
2022-10-23T06:26:12.617Z,98601.97
2022-10-23T06:28:42.377Z,98610.31
2022-10-23T06:31:12.147Z,98607.06
2022-10-23T06:33:40.562Z,98605.09
2022-10-23T06:36:10.853Z,98596.66
2022-10-23T06:38:40.658Z,98596.44
2022-10-23T06:41:12.679Z,98603.66
2022-10-23T06:43:42.375Z,98607.03
2022-10-23T06:46:10.949Z,98610.78
2022-10-23T06:48:39.503Z,98623.34
2022-10-23T06:51:08.745Z,98621.72
2022-10-23T06:53:37.536Z,98620.75
2022-10-23T06:56:07.504Z,98616.50
2022-10-23T06:58:36.446Z,98620.25
2022-10-23T07:01:07.808Z,98606.47
2022-10-23T07:03:36.544Z,98609.13
2022-10-23T07:06:05.922Z,98602.38
2022-10-23T07:08:33.977Z,98610.34
2022-10-23T07:11:05.447Z,98600.66
2022-10-23T07:13:34.359Z,98610.13
2022-10-23T07:16:12.398Z,98611.88
2022-10-23T07:18:40.639Z,98615.28
2022-10-23T07:21:08.995Z,98609.16
2022-10-23T07:23:37.339Z,98608.19
2022-10-23T07:26:07.827Z,98601.00
2022-10-23T07:28:36.230Z,98613.47
2022-10-23T07:31:04.836Z,98611.97
2022-10-23T07:33:34.500Z,98606.16
2022-10-23T07:36:04.732Z,98603.56
2022-10-23T07:38:32.919Z,98597.88
2022-10-23T07:41:01.408Z,98594.34
2022-10-23T07:43:30.119Z,98597.03
2022-10-23T07:45:58.526Z,98604.44
2022-10-23T07:48:27.662Z,98605.81
2022-10-23T07:51:01.004Z,98616.75
2022-10-23T07:53:29.834Z,98603.91
2022-10-23T07:56:00.022Z,98602.94
2022-10-23T07:58:28.679Z,98613.19
2022-10-23T08:00:58.937Z,98609.38
2022-10-23T08:03:27.418Z,98606.84
2022-10-23T08:05:57.531Z,98610.00
2022-10-23T08:08:26.745Z,98618.41
2022-10-23T08:10:56.312Z,98621.13
2022-10-23T08:13:24.581Z,98620.53
2022-10-23T08:15:53.828Z,98625.31
2022-10-23T08:18:21.820Z,98617.53
2022-10-23T08:20:52.526Z,98627.25
2022-10-23T08:23:22.030Z,98625.94
2022-10-23T08:25:50.353Z,98626.94
2022-10-23T08:28:18.551Z,98629.81
2022-10-23T08:30:47.055Z,98635.50
2022-10-23T08:33:15.198Z,98621.00
2022-10-23T08:35:43.621Z,98628.09
2022-10-23T08:38:12.223Z,98621.34
2022-10-23T08:40:45.453Z,98629.97
2022-10-23T08:43:17.443Z,98643.88
2022-10-23T08:45:47.869Z,98635.31
2022-10-23T08:48:22.391Z,98643.28
2022-10-23T08:50:52.456Z,98650.16
2022-10-23T08:53:23.853Z,98651.31
2022-10-23T08:55:57.698Z,98645.75
2022-10-23T08:58:32.105Z,98649.69
2022-10-23T09:01:00.563Z,98643.84
2022-10-23T09:03:28.711Z,98641.75
2022-10-23T09:06:05.932Z,98645.00
2022-10-23T09:08:41.686Z,98651.63
2022-10-23T09:11:14.746Z,98658.78
2022-10-23T09:14:18.034Z,98661.13
2022-10-23T09:16:53.631Z,98658.09
2022-10-23T09:19:26.409Z,98672.22
2022-10-23T09:21:55.664Z,98673.03
2022-10-23T09:24:25.630Z,98668.72
2022-10-23T09:26:55.701Z,98672.16
2022-10-23T09:29:26.535Z,98674.78
2022-10-23T09:31:56.335Z,98667.59
2022-10-23T09:34:26.194Z,98666.22
2022-10-23T09:39:27.638Z,98662.78
2022-10-23T09:41:57.502Z,98667.00
2022-10-23T09:44:27.235Z,98673.78
2022-10-23T09:46:57.199Z,98676.59
2022-10-23T09:49:26.600Z,98681.38
2022-10-23T09:52:00.420Z,98690.19
2022-10-23T09:54:29.378Z,98692.06
2022-10-23T09:57:03.460Z,98684.81
2022-10-23T09:59:32.548Z,98669.63
2022-10-23T10:02:04.085Z,98673.09
2022-10-23T10:04:33.745Z,98661.88
2022-10-23T10:07:03.079Z,98657.72
2022-10-23T10:09:31.137Z,98654.97
2022-10-23T10:12:09.777Z,98662.53
2022-10-23T10:14:48.165Z,98651.94
2022-10-23T10:17:22.084Z,98641.75
2022-10-23T10:20:07.067Z,98656.94
2022-10-23T10:22:41.420Z,98638.63
2022-10-23T10:25:13.390Z,98637.47
2022-10-23T10:27:49.222Z,98636.00
2022-10-23T10:30:21.273Z,98620.44
2022-10-23T10:32:54.594Z,98625.16
2022-10-23T10:35:30.343Z,98600.13
2022-10-23T10:38:13.885Z,98606.75
2022-10-23T10:40:44.399Z,98609.06
2022-10-23T10:43:24.641Z,98604.50
2022-10-23T10:45:58.790Z,98598.81
2022-10-23T10:48:43.648Z,98585.53
2022-10-23T10:51:16.733Z,98596.16
2022-10-23T10:53:54.825Z,98596.56
2022-10-23T10:56:24.537Z,98580.16
2022-10-23T10:58:55.782Z,98583.41
2022-10-23T11:01:27.172Z,98576.81
2022-10-23T11:03:57.966Z,98561.16
2022-10-23T11:06:29.945Z,98550.19
2022-10-23T11:09:19.370Z,98539.25
2022-10-23T11:11:49.286Z,98545.69
2022-10-23T11:14:20.868Z,98544.66
2022-10-23T11:16:51.302Z,98541.13
2022-10-23T11:19:23.773Z,98530.91
2022-10-23T11:21:58.817Z,98531.84
2022-10-23T11:25:03.452Z,98526.72
2022-10-23T11:27:49.633Z,98520.97
2022-10-23T11:30:25.397Z,98522.53
2022-10-23T11:33:29.823Z,98517.56
2022-10-23T11:36:14.183Z,98511.44
2022-10-23T11:38:44.267Z,98510.59
2022-10-23T11:41:23.865Z,98507.72
2022-10-23T11:43:57.198Z,98512.06
2022-10-23T11:46:35.179Z,98498.91
2022-10-23T11:49:06.139Z,98491.31
2022-10-23T11:51:36.457Z,98480.44
2022-10-23T11:54:22.430Z,98477.63
2022-10-23T11:56:57.408Z,98476.75
2022-10-23T11:59:29.163Z,98472.63
2022-10-23T12:02:00.521Z,98473.09
2022-10-23T12:04:29.407Z,98458.44
2022-10-23T12:07:00.542Z,98455.81
2022-10-23T12:09:33.162Z,98461.38
2022-10-23T12:12:26.607Z,98463.13
2022-10-23T12:14:54.961Z,98451.81
2022-10-23T12:17:37.053Z,98452.25
2022-10-23T12:20:20.543Z,98455.16
2022-10-23T12:22:57.992Z,98446.56
2022-10-23T12:25:29.357Z,98447.13
2022-10-23T12:28:05.666Z,98455.94
2022-10-23T12:30:41.166Z,98456.34
2022-10-23T12:33:17.185Z,98454.09
2022-10-23T12:35:59.670Z,98452.94
2022-10-23T12:38:33.798Z,98446.16
2022-10-23T12:41:11.168Z,98444.94
2022-10-23T12:43:41.278Z,98447.75
2022-10-23T12:46:23.635Z,98436.28
2022-10-23T12:48:56.664Z,98436.84
2022-10-23T12:51:26.294Z,98437.13
2022-10-23T12:53:54.810Z,98430.06
2022-10-23T12:56:23.185Z,98429.31
2022-10-23T12:58:53.658Z,98434.44
2022-10-23T13:01:27.430Z,98430.69
2022-10-23T13:04:03.613Z,98429.00
2022-10-23T13:06:34.868Z,98428.09
2022-10-23T13:09:03.376Z,98420.56
2022-10-23T13:11:32.405Z,98423.50
2022-10-23T13:14:01.829Z,98425.28
2022-10-23T13:16:29.957Z,98417.56
2022-10-23T13:18:58.295Z,98424.41
2022-10-23T13:21:29.783Z,98415.50
2022-10-23T13:23:58.505Z,98415.94
2022-10-23T13:26:36.806Z,98415.06
2022-10-23T13:29:09.539Z,98416.91
2022-10-23T13:31:38.221Z,98411.84
2022-10-23T13:34:16.358Z,98416.31
2022-10-23T13:36:57.946Z,98415.38
2022-10-23T13:39:28.503Z,98407.53
2022-10-23T13:41:56.773Z,98410.31
2022-10-23T13:44:26.751Z,98410.72
2022-10-23T13:46:54.895Z,98411.88
2022-10-23T13:49:23.220Z,98413.94
2022-10-23T13:51:54.767Z,98412.72
2022-10-23T13:54:25.232Z,98404.13
2022-10-23T13:56:55.233Z,98402.81
2022-10-23T13:59:24.197Z,98403.38
2022-10-23T14:01:52.998Z,98401.97
2022-10-23T14:04:21.794Z,98401.31
2022-10-23T14:06:49.885Z,98409.53
2022-10-23T14:09:20.107Z,98399.53
2022-10-23T14:11:48.268Z,98403.66
2022-10-23T14:14:16.622Z,98413.38
2022-10-23T14:16:44.897Z,98397.72
2022-10-23T14:19:13.484Z,98400.75
2022-10-23T14:21:41.922Z,98391.59
2022-10-23T14:24:10.337Z,98396.88
2022-10-23T14:26:39.896Z,98399.78
2022-10-23T14:29:10.320Z,98401.69
2022-10-23T14:31:42.135Z,98398.47
2022-10-23T14:34:10.678Z,98396.47
2022-10-23T14:36:50.499Z,98402.97
2022-10-23T14:39:24.906Z,98404.13
2022-10-23T14:41:54.621Z,98403.59
2022-10-23T14:44:23.055Z,98400.63
2022-10-23T14:46:52.174Z,98392.53
2022-10-23T14:49:20.749Z,98390.34
2022-10-23T14:51:48.898Z,98393.78
2022-10-23T14:54:17.602Z,98386.31
2022-10-23T14:56:45.687Z,98384.69
2022-10-23T14:59:15.777Z,98385.22
2022-10-23T15:01:47.367Z,98382.47
2022-10-23T15:04:18.614Z,98380.66
2022-10-23T15:06:47.270Z,98379.53
2022-10-23T15:09:15.978Z,98373.75
2022-10-23T15:11:44.153Z,98373.78
2022-10-23T15:14:12.724Z,98371.53
2022-10-23T15:16:42.379Z,98377.22
2022-10-23T15:19:15.120Z,98369.91
2022-10-23T15:21:46.556Z,98375.38
2022-10-23T15:24:14.881Z,98372.91
2022-10-23T15:26:43.812Z,98376.22
2022-10-23T15:29:15.267Z,98374.41
2022-10-23T15:31:48.464Z,98371.63
2022-10-23T15:34:19.575Z,98383.75
2022-10-23T15:36:48.275Z,98372.81
2022-10-23T15:39:19.221Z,98370.41
2022-10-23T15:41:47.391Z,98367.31
2022-10-23T15:44:16.913Z,98377.97
2022-10-23T15:46:45.358Z,98373.16
2022-10-23T15:49:15.459Z,98372.63
2022-10-23T15:51:44.437Z,98374.47
2022-10-23T15:54:17.088Z,98373.97
2022-10-23T15:56:45.415Z,98384.59
2022-10-23T15:59:13.956Z,98374.19
2022-10-23T16:01:42.519Z,98368.16
2022-10-23T16:04:10.957Z,98373.94
2022-10-23T16:06:40.738Z,98373.13
2022-10-23T16:09:09.053Z,98379.19
2022-10-23T16:11:38.872Z,98388.75
2022-10-23T16:14:07.596Z,98392.41
2022-10-23T16:16:36.117Z,98394.72
2022-10-23T16:19:04.972Z,98392.97
2022-10-23T16:21:35.311Z,98395.41
2022-10-23T16:24:07.157Z,98405.25
2022-10-23T16:26:36.782Z,98402.59
2022-10-23T16:29:07.007Z,98408.25
2022-10-23T16:31:35.583Z,98412.41
2022-10-23T16:34:04.876Z,98411.50
2022-10-23T16:36:32.958Z,98414.13
2022-10-23T16:39:03.054Z,98413.34
2022-10-23T16:41:33.407Z,98412.44
2022-10-23T16:44:02.078Z,98409.47
2022-10-23T16:46:30.373Z,98412.03
2022-10-23T16:48:58.886Z,98413.88
2022-10-23T16:51:27.935Z,98412.16
2022-10-23T16:53:56.669Z,98410.72
2022-10-23T16:56:27.866Z,98409.09
2022-10-23T17:01:32.448Z,98412.09
2022-10-23T17:04:01.342Z,98421.03
2022-10-23T17:06:31.392Z,98428.97
2022-10-23T17:09:00.727Z,98427.06
2022-10-23T17:11:30.477Z,98433.28
2022-10-23T17:14:02.379Z,98432.31
2022-10-23T17:16:32.425Z,98433.06
2022-10-23T17:19:02.332Z,98435.81
2022-10-23T17:21:33.209Z,98439.09
2022-10-23T17:26:30.457Z,98430.72
2022-10-23T17:29:01.143Z,98421.78
2022-10-23T17:31:31.981Z,98422.72
2022-10-23T17:34:02.267Z,98419.72
2022-10-23T17:36:32.005Z,98424.06
2022-10-23T17:39:00.616Z,98411.34
2022-10-23T17:41:29.018Z,98406.22
2022-10-23T17:43:58.423Z,98406.97
2022-10-23T17:46:29.419Z,98411.59
2022-10-23T17:48:58.349Z,98403.34
2022-10-23T17:51:28.216Z,98402.53
2022-10-23T17:53:58.442Z,98402.16
2022-10-23T17:56:29.175Z,98402.75
2022-10-23T17:59:01.247Z,98391.94
2022-10-23T18:01:31.613Z,98392.00
2022-10-23T18:04:02.303Z,98389.72
2022-10-23T18:06:32.205Z,98387.47
2022-10-23T18:09:01.248Z,98382.94
2022-10-23T18:11:32.052Z,98389.72
2022-10-23T18:14:02.289Z,98384.38
2022-10-23T18:16:31.917Z,98385.00
2022-10-23T18:19:01.299Z,98383.97
2022-10-23T18:21:30.084Z,98377.34
2022-10-23T18:23:59.865Z,98378.13
2022-10-23T18:26:31.524Z,98379.41
2022-10-23T18:29:02.062Z,98371.16
2022-10-23T18:31:31.694Z,98365.38
2022-10-23T18:34:01.561Z,98372.84
2022-10-23T18:36:32.025Z,98363.94
2022-10-23T18:39:00.456Z,98373.47
2022-10-23T18:41:28.781Z,98360.28
2022-10-23T18:43:57.196Z,98353.66
2022-10-23T18:46:28.648Z,98362.94
2022-10-23T18:48:58.328Z,98364.06
2022-10-23T18:51:29.201Z,98370.66
2022-10-23T18:53:58.067Z,98370.78
2022-10-23T18:56:27.864Z,98363.06
2022-10-23T18:58:58.811Z,98371.94
2022-10-23T19:01:29.182Z,98357.59
2022-10-23T19:04:00.714Z,98359.69
2022-10-23T19:06:28.962Z,98354.63
2022-10-23T19:08:57.701Z,98357.41
2022-10-23T19:11:27.558Z,98357.50
2022-10-23T19:13:55.932Z,98365.56
2022-10-23T19:16:27.509Z,98361.91
2022-10-23T19:19:00.516Z,98358.31
2022-10-23T19:21:32.134Z,98357.22
2022-10-23T19:24:02.496Z,98345.94
2022-10-23T19:26:31.443Z,98348.34
2022-10-23T19:28:59.875Z,98358.13
2022-10-23T19:31:28.438Z,98357.97
2022-10-23T19:33:56.839Z,98367.81
2022-10-23T19:36:26.314Z,98359.50
2022-10-23T19:38:54.573Z,98368.63
2022-10-23T19:41:23.318Z,98376.91
2022-10-23T19:43:52.144Z,98368.72
2022-10-23T19:46:20.201Z,98376.00
2022-10-23T19:48:48.514Z,98370.69
2022-10-23T19:51:16.562Z,98370.31
2022-10-23T19:53:46.420Z,98356.44
2022-10-23T19:56:14.768Z,98366.00
2022-10-23T19:58:43.193Z,98347.91
2022-10-23T20:01:13.207Z,98347.41
2022-10-23T20:03:42.776Z,98338.63
2022-10-23T20:06:11.777Z,98337.97
2022-10-23T20:08:40.244Z,98329.81
2022-10-23T20:11:10.827Z,98324.75
2022-10-23T20:13:39.146Z,98322.41
2022-10-23T20:16:08.079Z,98326.13
2022-10-23T20:18:36.439Z,98325.69
2022-10-23T20:21:04.831Z,98333.53
2022-10-23T20:23:33.117Z,98324.03
2022-10-23T20:26:07.867Z,98321.09
2022-10-23T20:28:37.977Z,98326.63
2022-10-23T20:31:08.501Z,98313.19
2022-10-23T20:33:36.833Z,98305.84
2022-10-23T20:36:05.770Z,98302.34
2022-10-23T20:38:34.681Z,98309.09
2022-10-23T20:41:05.898Z,98293.28
2022-10-23T20:43:34.686Z,98298.25
2022-10-23T20:46:06.553Z,98299.63
2022-10-23T20:48:36.341Z,98296.78
2022-10-23T20:51:04.794Z,98308.59
2022-10-23T20:53:33.451Z,98308.97
2022-10-23T20:56:01.805Z,98310.13
2022-10-23T20:58:30.179Z,98309.28
2022-10-23T21:01:03.627Z,98312.09
2022-10-23T21:03:33.553Z,98308.56
2022-10-23T21:06:06.153Z,98307.66
2022-10-23T21:08:35.477Z,98302.56
2022-10-23T21:11:03.855Z,98298.66
2022-10-23T21:13:32.641Z,98297.03
2022-10-23T21:16:00.935Z,98297.41
2022-10-23T21:18:44.876Z,98294.97
2022-10-23T21:21:17.545Z,98289.19
2022-10-23T21:23:46.537Z,98289.09
2022-10-23T21:26:15.700Z,98294.31
2022-10-23T21:28:55.813Z,98294.94
2022-10-23T21:31:29.499Z,98296.47
2022-10-23T21:33:57.889Z,98304.94
2022-10-23T21:36:29.290Z,98297.38
2022-10-23T21:38:59.722Z,98302.59
2022-10-23T21:41:29.438Z,98298.09
2022-10-23T21:43:59.752Z,98297.78
2022-10-23T21:46:28.674Z,98294.53
2022-10-23T21:48:57.071Z,98290.59
2022-10-23T21:51:29.364Z,98286.69
2022-10-23T21:53:58.841Z,98276.31
2022-10-23T21:56:29.960Z,98278.41
2022-10-23T21:58:58.206Z,98277.53
2022-10-23T22:01:26.500Z,98269.66
2022-10-23T22:03:55.373Z,98264.94
2022-10-23T22:06:26.105Z,98262.81
2022-10-23T22:08:57.231Z,98251.72
2022-10-23T22:11:25.591Z,98249.81
2022-10-23T22:13:54.070Z,98249.81
2022-10-23T22:16:22.315Z,98256.66
2022-10-23T22:18:51.019Z,98250.44
2022-10-23T22:21:20.950Z,98249.97
2022-10-23T22:23:49.946Z,98248.84
2022-10-23T22:26:23.518Z,98247.66
2022-10-23T22:28:52.579Z,98244.44
2022-10-23T22:31:23.594Z,98245.44
2022-10-23T22:33:52.374Z,98250.31
2022-10-23T22:36:20.895Z,98252.44
2022-10-23T22:38:49.544Z,98249.16
2022-10-23T22:41:18.480Z,98241.03
2022-10-23T22:43:48.206Z,98244.88
2022-10-23T22:46:17.848Z,98240.38
2022-10-23T22:48:46.769Z,98254.38
2022-10-23T22:51:16.119Z,98253.06
2022-10-23T22:53:44.868Z,98235.47
2022-10-23T22:56:16.098Z,98242.84
2022-10-23T22:58:44.385Z,98229.31
2022-10-23T23:01:17.408Z,98246.41
2022-10-23T23:03:46.563Z,98239.78
2022-10-23T23:06:15.118Z,98233.38
2022-10-23T23:08:43.760Z,98225.56
2022-10-23T23:11:13.747Z,98223.22
2022-10-23T23:13:42.788Z,98223.41
2022-10-23T23:16:18.948Z,98219.88
2022-10-23T23:18:47.378Z,98213.53
2022-10-23T23:21:15.798Z,98208.84
2022-10-23T23:23:44.179Z,98216.66
2022-10-23T23:26:12.454Z,98218.75
2022-10-23T23:28:40.906Z,98227.84
2022-10-23T23:31:11.728Z,98228.56
2022-10-23T23:33:41.669Z,98216.22
2022-10-23T23:36:11.942Z,98218.31
2022-10-23T23:38:40.876Z,98214.94
2022-10-23T23:41:12.797Z,98216.44
2022-10-23T23:43:41.205Z,98219.06
2022-10-23T23:46:09.822Z,98213.00
2022-10-23T23:48:38.445Z,98203.47
2022-10-23T23:51:07.991Z,98208.94
2022-10-23T23:53:36.326Z,98207.56
2022-10-23T23:56:04.516Z,98212.28
2022-10-23T23:58:32.910Z,98212.78
